Time;durP1;ratioP1;P1;durP2;ratioP2;P2;SDS_P1;SDS_P2;PMS_P1;PMS_P2;Temp;Humidity;BMP_temperature;BMP_pressure;BME280_temperature;BME280_humidity;BME280_pressure;Samples;Min_cycle;Max_cycle;Signal;HPM_P1;HPM_P2
2022/09/23 00:02:06;;;;;;;3.97;2.63;;;7.30;99.90;;;;;;5010252;28;20855;-51
2022/09/23 00:04:34;;;;;;;3.60;2.77;;;7.30;99.90;;;;;;5010687;28;20218;-51
2022/09/23 00:07:02;;;;;;;3.17;2.40;;;7.30;99.90;;;;;;5011220;28;20507;-51
2022/09/23 00:09:31;;;;;;;4.00;2.43;;;7.30;99.90;;;;;;5010725;28;20686;-51
2022/09/23 00:12:00;;;;;;;4.23;2.87;;;7.20;99.90;;;;;;5010523;28;20302;-52
2022/09/23 00:14:32;;;;;;;2.80;2.60;;;7.20;99.90;;;;;;5010933;28;20212;-51
2022/09/23 00:17:00;;;;;;;4.23;2.50;;;7.10;99.90;;;;;;5015916;28;20381;-52
2022/09/23 00:19:28;;;;;;;2.73;2.53;;;7.10;99.90;;;;;;5010736;28;20267;-52
2022/09/23 00:21:57;;;;;;;3.90;2.83;;;7.10;99.90;;;;;;5009926;28;20318;-51
2022/09/23 00:24:25;;;;;;;4.47;2.90;;;7.10;99.90;;;;;;5010683;28;20789;-52
2022/09/23 00:26:54;;;;;;;5.97;2.63;;;7.10;99.90;;;;;;5010796;28;20303;-52
2022/09/23 00:29:22;;;;;;;5.37;2.40;;;7.10;99.90;;;;;;5010029;28;20225;-52
2022/09/23 00:31:50;;;;;;;4.33;3.70;;;7.10;99.90;;;;;;5002549;28;20293;-52
2022/09/23 00:34:18;;;;;;;3.67;2.63;;;7.00;99.90;;;;;;5010425;28;20290;-51
2022/09/23 00:36:46;;;;;;;4.53;2.90;;;7.00;99.90;;;;;;5010493;28;20296;-51
2022/09/23 00:39:14;;;;;;;3.20;2.90;;;7.00;99.90;;;;;;5010515;28;20321;-50
2022/09/23 00:41:42;;;;;;;3.40;2.87;;;7.00;99.90;;;;;;5010088;28;20237;-51
2022/09/23 00:44:42;;;;;;;5.10;2.80;;;7.00;99.90;;;;;;5010265;28;20249;-52
2022/09/23 00:47:16;;;;;;;4.07;3.17;;;7.00;99.90;;;;;;5004505;28;20217;-52
2022/09/23 00:49:46;;;;;;;6.00;3.00;;;7.00;99.90;;;;;;5009788;28;20305;-51
2022/09/23 00:52:18;;;;;;;3.10;2.90;;;6.90;99.90;;;;;;5015907;28;20262;-51
2022/09/23 00:54:47;;;;;;;4.33;2.70;;;6.90;99.90;;;;;;5012843;28;20297;-51
2022/09/23 00:57:19;;;;;;;3.03;2.73;;;6.90;99.90;;;;;;5009705;28;20247;-52
2022/09/23 00:59:48;;;;;;;4.47;3.13;;;6.80;99.90;;;;;;5009197;28;20229;-51
2022/09/23 01:02:19;;;;;;;3.37;2.80;;;6.80;99.90;;;;;;5009539;28;20738;-51
2022/09/23 01:04:49;;;;;;;3.33;2.93;;;6.80;99.90;;;;;;5010076;28;20211;-51
2022/09/23 01:07:18;;;;;;;4.73;3.00;;;6.80;99.90;;;;;;5009881;28;20242;-51
2022/09/23 01:09:48;;;;;;;3.83;2.70;;;6.80;99.90;;;;;;5008867;28;20317;-51
2022/09/23 01:12:31;;;;;;;3.57;3.10;;;6.80;99.90;;;;;;5009374;28;20211;-51
2022/09/23 01:15:09;;;;;;;6.27;2.90;;;6.80;99.90;;;;;;5009756;28;20296;-51
2022/09/23 01:17:46;;;;;;;3.50;3.00;;;6.80;99.90;;;;;;5010153;28;20237;-51
2022/09/23 01:20:41;;;;;;;5.17;3.50;;;6.70;99.90;;;;;;5010098;28;20310;-51
2022/09/23 01:23:32;;;;;;;4.20;3.00;;;6.70;99.90;;;;;;5009165;28;20307;-51
2022/09/23 01:26:13;;;;;;;3.37;3.07;;;6.70;99.90;;;;;;5001153;28;20239;-51
2022/09/23 01:29:10;;;;;;;5.53;2.90;;;6.70;99.90;;;;;;5008930;28;20295;-52
2022/09/23 01:31:43;;;;;;;3.40;3.10;;;6.70;99.90;;;;;;5008605;28;20961;-51
2022/09/23 01:34:15;;;;;;;3.87;2.70;;;6.70;99.90;;;;;;5007966;28;20293;-51
2022/09/23 01:36:47;;;;;;;4.93;2.93;;;6.70;99.90;;;;;;5009475;28;20731;-51
2022/09/23 01:39:23;;;;;;;3.07;2.80;;;6.70;99.90;;;;;;5009844;28;20228;-51
2022/09/23 01:41:59;;;;;;;3.07;2.87;;;6.70;99.90;;;;;;5008959;28;20386;-51
2022/09/23 01:44:34;;;;;;;4.70;3.47;;;6.60;99.90;;;;;;5009171;28;20226;-52
2022/09/23 01:47:10;;;;;;;3.47;3.10;;;6.60;99.90;;;;;;5009530;28;20302;-51
2022/09/23 01:49:50;;;;;;;3.27;2.97;;;6.60;99.90;;;;;;5009628;28;20322;-51
2022/09/23 01:52:24;;;;;;;4.13;3.40;;;6.60;99.90;;;;;;5009238;28;20327;-52
2022/09/23 01:54:58;;;;;;;3.80;3.20;;;6.60;99.90;;;;;;5009180;28;20294;-52
2022/09/23 01:57:31;;;;;;;5.23;3.23;;;6.50;99.90;;;;;;5009547;28;20205;-50
2022/09/23 02:00:09;;;;;;;4.13;3.13;;;6.50;99.90;;;;;;5009677;28;20697;-51
2022/09/23 02:02:43;;;;;;;4.07;3.00;;;6.50;99.90;;;;;;5009104;28;20211;-51
2022/09/23 02:05:17;;;;;;;3.37;3.07;;;6.50;99.90;;;;;;5008860;28;20295;-51
2022/09/23 02:07:50;;;;;;;3.90;2.90;;;6.40;99.90;;;;;;5007705;28;20792;-51
2022/09/23 02:10:23;;;;;;;4.60;3.10;;;6.40;99.90;;;;;;5008986;28;20344;-51
2022/09/23 02:12:56;;;;;;;3.20;3.00;;;6.40;99.90;;;;;;5008695;28;20296;-51
2022/09/23 02:15:28;;;;;;;4.03;3.23;;;6.40;99.90;;;;;;5009614;28;20294;-51
2022/09/23 02:18:03;;;;;;;4.73;3.30;;;6.40;99.90;;;;;;5008895;28;20210;-50
2022/09/23 02:20:35;;;;;;;3.70;3.17;;;6.40;99.90;;;;;;5009156;28;20222;-51
2022/09/23 02:23:08;;;;;;;3.77;3.03;;;6.40;99.90;;;;;;5012165;28;20212;-51
2022/09/23 02:25:44;;;;;;;4.57;3.27;;;6.40;99.90;;;;;;5013132;28;20286;-51
2022/09/23 02:28:16;;;;;;;9.53;3.40;;;6.30;99.90;;;;;;5020530;28;20203;-51
2022/09/23 02:30:49;;;;;;;4.27;2.90;;;6.30;99.90;;;;;;5020826;28;20316;-51
2022/09/23 02:33:22;;;;;;;4.00;3.60;;;6.30;99.90;;;;;;5011182;28;20474;-51
2022/09/23 02:35:56;;;;;;;5.23;3.40;;;6.30;99.90;;;;;;5012638;28;20304;-51
2022/09/23 02:38:33;;;;;;;3.10;2.90;;;6.30;99.90;;;;;;5012732;28;20212;-51
2022/09/23 02:41:08;;;;;;;6.53;3.30;;;6.30;99.90;;;;;;5012869;28;20229;-52
2022/09/23 02:43:42;;;;;;;3.93;3.00;;;6.30;99.90;;;;;;5012194;28;20206;-50
2022/09/23 02:46:10;;;;;;;8.37;3.90;;;6.30;99.90;;;;;;5012534;28;20231;-51
2022/09/23 02:48:44;;;;;;;4.07;3.50;;;6.30;99.90;;;;;;5013101;28;20686;-51
2022/09/23 02:51:13;;;;;;;4.23;3.67;;;6.30;99.90;;;;;;5012519;28;20234;-51
2022/09/23 02:53:41;;;;;;;5.43;3.33;;;6.30;99.90;;;;;;5011865;28;20203;-51
2022/09/23 02:56:16;;;;;;;4.60;3.70;;;6.20;99.90;;;;;;5012318;28;20572;-51
2022/09/23 02:58:45;;;;;;;4.20;3.20;;;6.30;99.90;;;;;;5012430;28;20241;-52
2022/09/23 03:01:23;;;;;;;4.83;3.37;;;6.30;99.90;;;;;;5012530;28;20203;-52
2022/09/23 03:04:03;;;;;;;3.30;3.00;;;6.20;99.90;;;;;;5011936;28;20213;-51
2022/09/23 03:06:40;;;;;;;3.90;3.27;;;6.20;99.90;;;;;;5012004;28;20253;-51
2022/09/23 03:09:14;;;;;;;3.93;3.33;;;6.20;99.90;;;;;;5007500;28;20325;-51
2022/09/23 03:11:50;;;;;;;3.37;3.00;;;6.20;99.90;;;;;;5011923;28;20292;-52
2022/09/23 03:14:26;;;;;;;3.97;3.40;;;6.10;99.90;;;;;;5011847;28;20294;-51
2022/09/23 03:16:59;;;;;;;3.53;3.23;;;6.10;99.90;;;;;;5012054;28;20309;-51
2022/09/23 03:19:35;;;;;;;5.07;3.30;;;6.10;99.90;;;;;;5011586;28;20226;-51
2022/09/23 03:22:10;;;;;;;7.03;3.43;;;6.10;99.90;;;;;;5011544;28;20294;-51
2022/09/23 03:24:43;;;;;;;4.33;3.93;;;6.10;99.90;;;;;;5011744;28;20201;-51
2022/09/23 03:27:16;;;;;;;5.43;3.20;;;6.10;99.90;;;;;;5011626;28;20663;-51
2022/09/23 03:29:47;;;;;;;3.63;3.33;;;6.10;99.90;;;;;;5011472;28;20253;-51
2022/09/23 03:32:19;;;;;;;3.47;3.17;;;6.10;99.90;;;;;;5009834;28;20599;-51
2022/09/23 03:34:50;;;;;;;7.17;4.73;;;6.10;99.90;;;;;;5010929;28;20211;-51
2022/09/23 03:37:24;;;;;;;4.80;4.10;;;6.10;99.90;;;;;;5011613;28;20788;-50
2022/09/23 03:39:57;;;;;;;4.67;4.00;;;6.20;99.90;;;;;;5010872;28;20223;-51
2022/09/23 03:42:29;;;;;;;5.43;3.37;;;6.20;99.90;;;;;;5009348;28;20219;-51
2022/09/23 03:44:58;;;;;;;4.27;3.87;;;6.20;99.90;;;;;;5010934;28;20583;-51
2022/09/23 03:47:28;;;;;;;6.00;3.67;;;6.20;99.90;;;;;;5011351;28;20223;-50
2022/09/23 03:49:57;;;;;;;3.80;3.20;;;6.20;99.90;;;;;;5011081;28;20309;-50
2022/09/23 03:52:26;;;;;;;3.40;3.10;;;6.20;99.90;;;;;;5011189;28;20302;-52
2022/09/23 03:54:54;;;;;;;3.40;3.03;;;6.20;99.90;;;;;;5010916;28;20289;-51
2022/09/23 03:57:23;;;;;;;4.87;3.30;;;6.20;99.90;;;;;;5011171;28;20215;-51
2022/09/23 03:59:51;;;;;;;6.43;4.13;;;6.20;99.90;;;;;;5011243;28;20321;-51
2022/09/23 04:02:20;;;;;;;4.03;3.50;;;6.20;99.90;;;;;;5010390;28;20854;-51
2022/09/23 04:04:48;;;;;;;5.13;4.07;;;6.20;99.90;;;;;;5011099;28;20220;-51
2022/09/23 04:07:18;;;;;;;6.07;5.57;;;6.30;99.90;;;;;;5015940;28;20227;-51
2022/09/23 04:09:46;;;;;;;4.13;3.73;;;6.30;99.90;;;;;;5010685;28;20241;-51
2022/09/23 04:12:15;;;;;;;3.90;3.50;;;6.20;99.90;;;;;;5010683;28;20298;-51
2022/09/23 04:14:44;;;;;;;4.43;3.23;;;6.20;99.90;;;;;;5010065;28;20681;-52
2022/09/23 04:17:12;;;;;;;6.33;3.87;;;6.20;99.90;;;;;;5011312;28;20212;-51
2022/09/23 04:19:41;;;;;;;4.93;4.30;;;6.20;99.90;;;;;;5010802;28;20234;-51
2022/09/23 04:22:09;;;;;;;5.83;3.90;;;6.20;99.90;;;;;;5010473;28;20309;-52
2022/09/23 04:24:39;;;;;;;4.90;4.10;;;6.20;99.90;;;;;;5010778;28;20294;-51
2022/09/23 04:27:07;;;;;;;4.20;3.80;;;6.20;99.90;;;;;;5011121;28;20714;-51
2022/09/23 04:29:35;;;;;;;4.97;3.37;;;6.20;99.90;;;;;;5010514;28;20317;-51
2022/09/23 04:32:03;;;;;;;3.80;3.43;;;6.20;99.90;;;;;;5010506;28;20216;-51
2022/09/23 04:34:31;;;;;;;6.03;3.50;;;6.20;99.90;;;;;;5009430;28;20302;-51
2022/09/23 04:36:59;;;;;;;5.67;3.57;;;6.20;99.90;;;;;;5010636;28;20294;-51
2022/09/23 04:39:27;;;;;;;6.73;3.73;;;6.20;99.90;;;;;;5010527;28;20281;-51
2022/09/23 04:41:56;;;;;;;3.93;3.53;;;6.20;99.90;;;;;;5009995;28;20657;-51
2022/09/23 04:44:26;;;;;;;3.50;3.20;;;6.20;99.90;;;;;;5010348;28;20756;-51
2022/09/23 04:46:54;;;;;;;4.97;3.70;;;6.20;99.90;;;;;;5010170;28;20280;-51
2022/09/23 04:49:23;;;;;;;5.57;3.30;;;6.20;99.90;;;;;;5010328;28;20238;-50
2022/09/23 04:51:51;;;;;;;4.00;3.60;;;6.20;99.90;;;;;;5009865;28;20211;-51
2022/09/23 04:54:19;;;;;;;4.97;3.83;;;6.20;99.90;;;;;;5010140;28;20672;-51
2022/09/23 04:56:47;;;;;;;4.47;3.97;;;6.20;99.90;;;;;;5009704;28;20696;-51
2022/09/23 04:59:16;;;;;;;5.13;3.60;;;6.30;99.90;;;;;;5010110;28;20676;-51
2022/09/23 05:01:44;;;;;;;4.20;3.43;;;6.30;99.90;;;;;;5009704;28;20289;-51
2022/09/23 05:04:13;;;;;;;4.27;3.60;;;6.30;99.90;;;;;;5009970;28;20203;-51
2022/09/23 05:06:44;;;;;;;4.90;3.40;;;6.30;99.90;;;;;;5009572;28;20316;-51
2022/09/23 05:09:16;;;;;;;4.20;3.80;;;6.30;99.90;;;;;;5009651;28;20615;-51
2022/09/23 05:11:44;;;;;;;4.10;3.53;;;6.40;99.90;;;;;;5009241;28;20298;-51
2022/09/23 05:14:15;;;;;;;4.97;3.80;;;6.40;99.90;;;;;;5009052;28;20239;-51
2022/09/23 05:16:43;;;;;;;4.07;3.53;;;6.40;99.90;;;;;;5009386;28;20229;-51
2022/09/23 05:19:12;;;;;;;6.80;3.90;;;6.40;99.90;;;;;;5009315;28;20278;-51
2022/09/23 05:21:40;;;;;;;3.93;3.53;;;6.50;99.90;;;;;;5009283;28;20253;-52
2022/09/23 05:24:08;;;;;;;4.07;3.63;;;6.50;99.90;;;;;;5009275;28;20208;-52
2022/09/23 05:26:37;;;;;;;5.23;3.63;;;6.50;99.90;;;;;;5009584;28;20212;-51
2022/09/23 05:29:05;;;;;;;3.70;3.40;;;6.60;99.90;;;;;;5009485;28;20281;-52
2022/09/23 05:31:35;;;;;;;3.70;3.13;;;6.60;99.90;;;;;;5009865;28;20212;-52
2022/09/23 05:34:05;;;;;;;4.07;3.60;;;6.70;99.90;;;;;;4999481;28;20611;-51
2022/09/23 05:36:35;;;;;;;6.13;4.63;;;6.70;99.90;;;;;;5009833;28;20237;-52
2022/09/23 05:39:06;;;;;;;4.90;4.10;;;6.80;99.90;;;;;;5009656;28;20922;-51
2022/09/23 05:41:34;;;;;;;5.50;4.13;;;6.90;99.90;;;;;;5009842;28;20229;-52
2022/09/23 05:44:03;;;;;;;5.53;4.23;;;6.90;99.90;;;;;;5010673;28;20298;-52
2022/09/23 05:46:31;;;;;;;10.37;9.30;;;7.00;99.90;;;;;;5018165;28;20207;-51
2022/09/23 05:49:02;;;;;;;9.53;5.40;;;7.10;99.90;;;;;;5009158;28;20231;-52
2022/09/23 05:51:32;;;;;;;5.13;4.37;;;7.20;99.90;;;;;;5009505;28;20221;-52
2022/09/23 05:54:02;;;;;;;6.27;4.03;;;7.20;99.90;;;;;;5003527;28;20296;-52
2022/09/23 05:56:32;;;;;;;5.97;4.50;;;7.30;99.90;;;;;;5000505;28;20306;-51
2022/09/23 05:59:02;;;;;;;5.00;4.20;;;7.40;99.90;;;;;;5012721;28;20763;-51
2022/09/23 06:01:32;;;;;;;4.30;4.00;;;7.40;99.90;;;;;;5013251;28;20209;-51
2022/09/23 06:04:04;;;;;;;4.73;4.33;;;7.50;99.90;;;;;;5012935;28;20302;-52
2022/09/23 06:06:34;;;;;;;5.87;5.37;;;7.60;99.90;;;;;;4996733;28;20258;-50
2022/09/23 06:09:02;;;;;;;9.30;8.60;;;7.70;99.90;;;;;;4995062;28;20230;-51
2022/09/23 06:11:31;;;;;;;11.67;9.70;;;7.70;99.90;;;;;;4995289;28;20245;-52
2022/09/23 06:14:01;;;;;;;7.10;3.70;;;7.70;99.90;;;;;;5000836;28;20778;-51
2022/09/23 06:16:31;;;;;;;6.30;3.70;;;7.80;99.90;;;;;;4997884;28;20916;-51
2022/09/23 06:19:04;;;;;;;4.10;3.67;;;7.80;99.90;;;;;;5011531;28;20218;-51
2022/09/23 06:21:36;;;;;;;6.17;5.57;;;7.90;99.90;;;;;;5011259;28;20674;-52
2022/09/23 06:24:05;;;;;;;6.10;3.70;;;7.90;99.90;;;;;;5008625;28;20293;-52
2022/09/23 06:26:35;;;;;;;5.87;4.47;;;8.00;99.90;;;;;;5011012;28;20210;-52
2022/09/23 06:29:05;;;;;;;4.73;3.77;;;8.00;99.90;;;;;;5011475;28;20950;-51
2022/09/23 06:31:33;;;;;;;4.73;4.20;;;8.10;99.90;;;;;;5011725;28;20206;-51
2022/09/23 06:34:01;;;;;;;23.97;21.63;;;8.10;99.90;;;;;;5010049;28;20726;-52
2022/09/23 06:36:40;;;;;;;5.13;4.33;;;8.10;99.90;;;;;;5012167;28;20211;-51
2022/09/23 06:39:12;;;;;;;6.60;4.10;;;8.20;99.90;;;;;;5012214;28;20265;-52
2022/09/23 06:41:40;;;;;;;7.80;6.93;;;8.30;99.90;;;;;;5011160;28;20207;-56
2022/09/23 06:44:08;;;;;;;9.57;8.70;;;8.30;99.90;;;;;;5009788;28;20600;-51
2022/09/23 06:46:37;;;;;;;7.77;4.50;;;8.30;99.90;;;;;;5011374;28;20297;-51
2022/09/23 06:49:05;;;;;;;5.00;3.97;;;8.30;99.90;;;;;;5011725;28;20234;-52
2022/09/23 06:51:33;;;;;;;8.43;7.50;;;8.40;99.90;;;;;;5011706;28;20289;-52
2022/09/23 06:54:02;;;;;;;12.57;6.33;;;8.40;99.90;;;;;;5011603;28;20211;-52
2022/09/23 06:56:30;;;;;;;4.10;3.70;;;8.50;99.90;;;;;;5011911;28;20218;-51
2022/09/23 06:59:05;;;;;;;18.93;17.33;;;8.60;99.90;;;;;;5004496;28;20206;-52
2022/09/23 07:01:34;;;;;;;6.47;4.50;;;8.70;99.90;;;;;;5000327;28;20989;-52
2022/09/23 07:04:02;;;;;;;7.20;6.60;;;8.90;99.90;;;;;;5007339;28;20240;-51
2022/09/23 07:06:30;;;;;;;6.20;4.07;;;9.10;99.90;;;;;;5001544;28;20580;-52
2022/09/23 07:08:59;;;;;;;29.70;26.60;;;9.30;99.90;;;;;;4993077;28;20230;-51
2022/09/23 07:11:29;;;;;;;12.30;11.10;;;9.50;99.90;;;;;;4997109;28;20727;-52
2022/09/23 07:13:57;;;;;;;13.87;11.47;;;9.60;99.90;;;;;;4999658;28;20207;-52
2022/09/23 07:16:25;;;;;;;31.90;28.60;;;9.80;99.90;;;;;;4995201;28;20207;-52
2022/09/23 07:18:54;;;;;;;16.23;14.23;;;9.90;99.90;;;;;;5003175;28;20246;-52
2022/09/23 07:21:23;;;;;;;23.97;21.77;;;10.00;99.90;;;;;;5017238;28;20295;-52
2022/09/23 07:23:51;;;;;;;35.17;31.70;;;10.00;99.90;;;;;;5007168;28;20298;-51
2022/09/23 07:26:20;;;;;;;30.57;27.53;;;10.20;99.90;;;;;;4992375;28;20207;-52
2022/09/23 07:28:54;;;;;;;16.03;14.47;;;10.40;99.90;;;;;;4993536;28;20310;-52
2022/09/23 07:31:23;;;;;;;55.83;50.60;;;10.60;99.90;;;;;;5000503;28;20294;-52
2022/09/23 07:34:05;;;;;;;43.77;39.27;;;10.70;99.90;;;;;;5003362;28;20211;-50
2022/09/23 07:36:36;;;;;;;59.57;49.93;;;10.90;99.90;;;;;;4991673;28;20290;-52
2022/09/23 07:39:04;;;;;;;86.67;78.23;;;11.00;99.90;;;;;;4990667;28;20270;-51
2022/09/23 07:41:34;;;;;;;86.70;78.37;;;11.30;99.90;;;;;;4998427;28;20704;-51
2022/09/23 07:44:05;;;;;;;85.00;54.93;;;11.40;99.90;;;;;;5001030;28;20214;-52
2022/09/23 07:46:35;;;;;;;91.27;73.27;;;11.70;99.90;;;;;;4993621;28;20270;-52
2022/09/23 07:49:05;;;;;;;81.30;63.70;;;11.90;99.90;;;;;;5001656;28;20234;-51
2022/09/23 07:51:35;;;;;;;31.00;25.07;;;12.00;99.90;;;;;;4996382;28;20211;-52
2022/09/23 07:54:06;;;;;;;17.00;13.93;;;12.00;99.90;;;;;;4991610;28;20298;-52
2022/09/23 07:56:35;;;;;;;12.67;11.43;;;12.10;99.90;;;;;;4995899;28;20744;-53
2022/09/23 07:59:07;;;;;;;36.47;33.10;;;12.00;99.90;;;;;;5004938;28;20242;-53
2022/09/23 08:01:38;;;;;;;33.60;30.53;;;12.00;99.90;;;;;;5010085;28;20943;-51
2022/09/23 08:04:08;;;;;;;15.70;13.03;;;12.10;99.90;;;;;;5004708;28;20215;-52
2022/09/23 08:06:39;;;;;;;21.63;16.20;;;12.10;99.90;;;;;;5009950;28;20301;-51
2022/09/23 08:09:08;;;;;;;10.33;9.43;;;12.10;99.90;;;;;;5009821;28;20666;-52
2022/09/23 08:11:40;;;;;;;45.63;42.23;;;12.20;99.90;;;;;;5010599;28;20214;-52
2022/09/23 08:14:11;;;;;;;19.37;17.30;;;12.20;99.90;;;;;;5009904;28;20213;-52
2022/09/23 08:16:40;;;;;;;14.07;12.33;;;12.30;99.90;;;;;;5010565;28;20637;-52
2022/09/23 08:19:08;;;;;;;8.50;7.60;;;12.40;99.90;;;;;;5008378;28;20207;-52
2022/09/23 08:21:38;;;;;;;20.73;18.93;;;12.50;99.90;;;;;;5007783;28;20302;-52
2022/09/23 08:24:06;;;;;;;7.97;7.23;;;12.60;99.90;;;;;;4996826;28;20218;-51
2022/09/23 08:26:35;;;;;;;12.63;11.40;;;12.80;99.90;;;;;;5001553;28;20207;-51
2022/09/23 08:29:03;;;;;;;6.07;5.37;;;12.80;99.90;;;;;;5006426;28;20631;-52
2022/09/23 08:31:33;;;;;;;21.03;19.23;;;12.80;99.90;;;;;;5007513;28;20831;-51
2022/09/23 08:34:01;;;;;;;15.10;13.87;;;13.00;99.90;;;;;;5005676;28;20289;-51
2022/09/23 08:36:29;;;;;;;40.03;36.40;;;13.10;99.90;;;;;;5007350;28;20211;-51
2022/09/23 08:38:57;;;;;;;15.03;13.63;;;13.10;99.90;;;;;;5009508;28;20294;-51
2022/09/23 08:41:35;;;;;;;26.17;23.50;;;13.20;99.90;;;;;;5004795;28;20221;-51
2022/09/23 08:44:10;;;;;;;10.33;9.10;;;13.30;99.90;;;;;;5004936;28;20298;-51
2022/09/23 08:46:45;;;;;;;70.77;64.03;;;13.30;99.90;;;;;;5006306;28;20249;-52
2022/09/23 08:49:23;;;;;;;31.90;29.07;;;13.30;99.90;;;;;;5006119;28;20795;-51
2022/09/23 08:51:54;;;;;;;21.53;19.77;;;13.30;99.90;;;;;;5006573;28;20901;-51
2022/09/23 08:54:25;;;;;;;17.83;16.37;;;13.30;99.90;;;;;;5002451;28;20207;-52
2022/09/23 08:56:57;;;;;;;8.97;7.83;;;13.30;99.90;;;;;;5007213;28;20294;-50
2022/09/23 08:59:35;;;;;;;65.30;58.97;;;13.40;99.90;;;;;;5008430;28;20715;-52
2022/09/23 09:02:11;;;;;;;10.50;9.10;;;13.40;99.90;;;;;;5006303;28;20322;-51
2022/09/23 09:04:43;;;;;;;44.03;39.87;;;13.40;99.90;;;;;;5008988;28;20221;-51
2022/09/23 09:07:15;;;;;;;40.07;36.60;;;13.50;99.90;;;;;;5009873;28;20217;-51
2022/09/23 09:10:06;;;;;;;13.00;11.73;;;13.50;99.90;;;;;;4999705;28;20701;-50
2022/09/23 09:12:41;;;;;;;97.40;88.40;;;13.60;99.90;;;;;;4998642;28;20295;-51
2022/09/23 09:15:13;;;;;;;70.67;63.03;;;13.70;99.90;;;;;;4988932;28;20198;-52
2022/09/23 09:17:51;;;;;;;29.53;27.07;;;13.70;99.90;;;;;;5006214;28;20301;-51
2022/09/23 09:20:23;;;;;;;81.07;74.43;;;13.70;99.90;;;;;;5007531;28;20766;-51
2022/09/23 09:22:56;;;;;;;48.60;44.57;;;13.80;99.90;;;;;;5006142;28;20207;-51
2022/09/23 09:25:42;;;;;;;28.37;25.70;;;13.90;99.90;;;;;;5008719;28;20241;-50
2022/09/23 09:28:15;;;;;;;24.37;22.13;;;13.90;99.90;;;;;;5007384;28;20207;-51
2022/09/23 09:30:44;;;;;;;42.60;38.33;;;14.00;99.90;;;;;;5006779;28;20222;-50
2022/09/23 09:33:20;;;;;;;17.23;15.07;;;13.90;99.90;;;;;;5006022;28;20226;-52
2022/09/23 09:36:08;;;;;;;31.97;28.97;;;13.90;99.90;;;;;;5008058;28;20214;-51
2022/09/23 09:38:36;;;;;;;19.30;17.90;;;14.00;99.90;;;;;;4999034;28;20311;-51
2022/09/23 09:41:13;;;;;;;25.57;23.13;;;14.00;99.90;;;;;;5008022;28;20317;-51
2022/09/23 09:43:43;;;;;;;34.63;31.03;;;14.10;99.90;;;;;;5007131;28;20206;-51
2022/09/23 09:46:28;;;;;;;35.40;32.43;;;14.10;99.90;;;;;;5008202;28;20899;-51
2022/09/23 09:49:02;;;;;;;60.33;54.03;;;14.20;99.90;;;;;;5005481;28;20290;-51
2022/09/23 09:51:30;;;;;;;19.93;18.27;;;14.50;99.90;;;;;;5007466;28;20269;-52
2022/09/23 09:54:17;;;;;;;70.67;64.63;;;14.50;99.90;;;;;;5007679;28;20821;-52
2022/09/23 09:56:45;;;;;;;40.30;36.73;;;14.60;99.90;;;;;;5007463;28;20739;-52
2022/09/23 09:59:22;;;;;;;88.90;81.53;;;14.60;99.90;;;;;;5007121;28;20403;-52
2022/09/23 10:01:50;;;;;;;42.07;38.63;;;14.70;99.90;;;;;;5007057;28;20278;-51
2022/09/23 10:04:23;;;;;;;47.60;43.07;;;14.70;99.90;;;;;;5005817;28;20203;-52
2022/09/23 10:07:06;;;;;;;46.10;42.10;;;14.80;99.90;;;;;;5007900;28;20758;-51
2022/09/23 10:09:36;;;;;;;40.60;36.10;;;14.80;99.90;;;;;;5007555;28;20721;-52
2022/09/23 10:12:13;;;;;;;61.83;56.30;;;15.00;99.90;;;;;;5007486;28;21140;-52
2022/09/23 10:14:42;;;;;;;85.73;76.57;;;15.10;99.90;;;;;;5007074;28;20707;-52
2022/09/23 10:17:17;;;;;;;93.00;85.97;;;15.20;99.90;;;;;;5007255;28;20302;-51
2022/09/23 10:19:49;;;;;;;82.70;75.77;;;15.30;99.90;;;;;;5007740;28;20313;-52
2022/09/23 10:22:22;;;;;;;122.27;112.03;;;15.30;99.90;;;;;;5006968;28;20207;-52
2022/09/23 10:24:53;;;;;;;118.77;110.30;;;15.40;99.90;;;;;;5007866;28;20199;-52
2022/09/23 10:27:30;;;;;;;27.53;23.13;;;15.50;99.90;;;;;;5007776;28;20207;-51
2022/09/23 10:30:01;;;;;;;76.10;68.97;;;15.60;99.90;;;;;;5006815;28;20254;-52
2022/09/23 10:32:35;;;;;;;78.37;70.43;;;15.70;99.90;;;;;;5007034;28;20286;-52
2022/09/23 10:35:14;;;;;;;78.50;71.37;;;15.70;99.90;;;;;;5005839;28;20203;-52
2022/09/23 10:37:45;;;;;;;78.47;71.13;;;15.70;99.90;;;;;;5005289;28;20238;-52
2022/09/23 10:49:34;;;;;;;65.83;59.63;;;16.00;99.90;;;;;;5007257;28;20206;-52
2022/09/23 10:52:26;;;;;;;56.83;51.17;;;16.00;99.90;;;;;;5010858;28;20230;-51
2022/09/23 10:55:07;;;;;;;55.97;51.03;;;16.00;99.90;;;;;;5009083;28;20293;-52
2022/09/23 10:57:49;;;;;;;146.83;134.73;;;16.10;99.90;;;;;;5010325;28;20345;-52
2022/09/23 11:00:22;;;;;;;65.90;60.07;;;16.10;99.90;;;;;;5010692;28;20257;-52
2022/09/23 11:03:34;;;;;;;52.00;47.03;;;16.20;99.90;;;;;;5009784;28;20202;-52
2022/09/23 11:06:13;;;;;;;64.97;58.80;;;16.20;99.90;;;;;;5005253;28;20221;-52
2022/09/23 11:08:59;;;;;;;67.65;61.30;;;16.20;99.90;;;;;;5010552;28;20218;-52
2022/09/23 11:11:41;;;;;;;77.72;72.07;;;16.20;99.90;;;;;;5008214;28;20715;-52
2022/09/23 11:14:32;;;;;;;48.80;44.20;;;16.30;99.90;;;;;;5010001;28;20203;-52
2022/09/23 11:17:14;;;;;;;67.55;61.55;;;16.40;99.90;;;;;;5009120;28;20250;-52
2022/09/23 11:20:07;;;;;;;160.25;143.05;;;16.40;99.90;;;;;;5010338;28;20920;-52
2022/09/23 11:22:55;;;;;;;101.38;90.82;;;16.50;99.90;;;;;;4999335;28;20216;-51
2022/09/23 11:25:42;;;;;;;120.90;111.03;;;16.50;99.90;;;;;;5005441;28;20289;-51
2022/09/23 11:28:32;;;;;;;94.32;85.57;;;16.50;99.90;;;;;;5003515;28;20214;-52
2022/09/23 11:31:13;;;;;;;72.07;65.97;;;16.50;99.90;;;;;;5009658;28;20293;-52
2022/09/23 11:33:54;;;;;;;115.90;106.05;;;16.60;99.90;;;;;;5007543;28;20217;-52
2022/09/23 11:36:27;;;;;;;126.47;114.57;;;16.60;99.90;;;;;;5008689;28;20319;-52
2022/09/23 11:38:59;;;;;;;95.93;86.05;;;16.70;99.90;;;;;;5008888;28;20257;-51
2022/09/23 11:41:33;;;;;;;94.90;86.60;;;16.60;99.90;;;;;;5010172;28;20289;-52
2022/09/23 11:44:07;;;;;;;126.18;116.35;;;16.60;99.90;;;;;;5004266;28;20207;-52
2022/09/23 11:46:40;;;;;;;77.07;69.97;;;16.60;99.90;;;;;;5007655;28;20294;-52
2022/09/23 11:49:14;;;;;;;91.18;83.18;;;16.70;99.90;;;;;;5005383;28;20595;-51
2022/09/23 11:51:46;;;;;;;75.38;68.22;;;16.80;99.90;;;;;;5001906;28;20688;-51
2022/09/23 11:54:20;;;;;;;59.83;53.95;;;16.90;99.90;;;;;;5005191;28;20340;-52
2022/09/23 11:56:53;;;;;;;109.45;98.53;;;17.10;99.90;;;;;;5007555;28;20290;-51
2022/09/23 11:59:32;;;;;;;101.05;90.90;;;17.10;99.90;;;;;;5008694;28;20233;-52
2022/09/23 12:02:19;;;;;;;108.95;97.07;;;17.20;99.90;;;;;;5004369;28;20205;-52
2022/09/23 12:04:59;;;;;;;60.90;55.63;;;17.20;99.90;;;;;;5004673;28;20643;-52
2022/09/23 12:07:38;;;;;;;131.93;119.40;;;17.20;99.90;;;;;;5001620;28;20213;-52
2022/09/23 12:10:08;;;;;;;123.82;113.13;;;17.30;99.90;;;;;;5005022;28;20338;-52
2022/09/23 12:12:49;;;;;;;115.28;106.30;;;17.30;99.90;;;;;;5008153;28;20211;-52
2022/09/23 12:15:30;;;;;;;106.90;97.80;;;17.30;99.90;;;;;;5008718;28;20294;-51
2022/09/23 12:18:23;;;;;;;81.65;74.50;;;17.40;99.90;;;;;;5008655;28;20215;-52
2022/09/23 12:21:11;;;;;;;125.00;115.30;;;17.50;99.90;;;;;;5006128;28;20250;-52
2022/09/23 12:24:14;;;;;;;126.97;114.85;;;17.40;99.90;;;;;;5005044;28;20203;-52
2022/09/23 12:26:52;;;;;;;89.53;80.90;;;17.50;99.90;;;;;;5008820;28;20218;-52
2022/09/23 12:29:23;;;;;;;142.43;129.52;;;17.50;99.90;;;;;;5008700;28;20311;-52
2022/09/23 12:31:52;;;;;;;93.60;84.93;;;17.50;99.90;;;;;;5008812;28;20225;-52
2022/09/23 12:34:27;;;;;;;64.95;58.63;;;17.60;99.90;;;;;;5006932;28;20206;-52
2022/09/23 12:37:02;;;;;;;143.85;130.38;;;17.80;99.90;;;;;;5008589;28;20293;-51
2022/09/23 12:39:33;;;;;;;111.47;101.43;;;17.90;99.90;;;;;;5008786;28;20661;-51
2022/09/23 12:42:04;;;;;;;89.93;80.55;;;17.90;99.90;;;;;;5008439;28;20246;-51
2022/09/23 12:44:38;;;;;;;146.70;134.63;;;17.90;99.90;;;;;;5008399;28;20294;-51
2022/09/23 12:47:30;;;;;;;135.70;124.03;;;17.80;99.90;;;;;;5008649;28;20230;-51
2022/09/23 12:49:59;;;;;;;98.05;88.53;;;17.70;99.90;;;;;;5008606;28;20318;-51
2022/09/23 12:52:30;;;;;;;96.55;87.85;;;17.60;99.90;;;;;;5008129;28;20374;-51
2022/09/23 12:55:19;;;;;;;142.55;130.18;;;17.80;99.90;;;;;;5007315;28;20203;-52
2022/09/23 12:57:48;;;;;;;115.10;105.00;;;17.80;99.90;;;;;;5002997;28;20207;-51
2022/09/23 13:00:24;;;;;;;99.22;88.57;;;17.60;99.90;;;;;;5008686;28;20326;-52
2022/09/23 13:08:32;;;;;;;65.25;58.47;;;17.70;99.90;;;;;;5008170;28;20286;-51
2022/09/23 13:11:02;;;;;;;73.00;66.25;;;17.70;99.90;;;;;;5008446;28;20265;-51
2022/09/23 13:13:35;;;;;;;127.28;114.32;;;17.70;99.90;;;;;;5007597;28;21650;-51
2022/09/23 13:16:13;;;;;;;122.50;111.93;;;17.70;99.90;;;;;;5008269;28;20703;-51
2022/09/23 13:18:59;;;;;;;95.88;87.57;;;17.60;99.90;;;;;;5008762;28;20234;-51
2022/09/23 13:22:01;;;;;;;74.50;68.15;;;17.60;99.90;;;;;;5004507;28;20649;-52
2022/09/23 13:24:41;;;;;;;71.65;65.13;;;17.50;99.90;;;;;;5006138;28;20225;-49
2022/09/23 13:27:17;;;;;;;100.75;91.07;;;17.50;99.90;;;;;;5007889;28;20245;-51